sensor_id;sensor_type;location;lat;lon;timestamp;P1;durP1;ratioP1;P2;durP2;ratioP2
62056;SDS011;48016;50.284;18.860;2023-09-12T00:00:06;25.70;;;21.90;;
62056;SDS011;48016;50.284;18.860;2023-09-12T00:02:52;23.70;;;20.40;;
62056;SDS011;48016;50.284;18.860;2023-09-12T00:05:19;23.50;;;20.80;;
62056;SDS011;48016;50.284;18.860;2023-09-12T00:07:46;22.70;;;20.20;;
62056;SDS011;48016;50.284;18.860;2023-09-12T00:10:13;26.50;;;21.40;;
62056;SDS011;48016;50.284;18.860;2023-09-12T00:12:39;23.40;;;20.40;;
62056;SDS011;48016;50.284;18.860;2023-09-12T00:15:06;26.70;;;20.80;;
62056;SDS011;48016;50.284;18.860;2023-09-12T00:20:00;27.30;;;22.60;;
62056;SDS011;48016;50.284;18.860;2023-09-12T00:22:27;32.20;;;22.90;;
62056;SDS011;48016;50.284;18.860;2023-09-12T00:24:53;31.60;;;22.40;;
62056;SDS011;48016;50.284;18.860;2023-09-12T00:27:20;27.10;;;22.90;;
62056;SDS011;48016;50.284;18.860;2023-09-12T00:29:46;28.90;;;22.20;;
62056;SDS011;48016;50.284;18.860;2023-09-12T00:32:13;26.60;;;22.30;;
62056;SDS011;48016;50.284;18.860;2023-09-12T00:34:40;26.80;;;21.90;;
62056;SDS011;48016;50.284;18.860;2023-09-12T00:37:06;25.90;;;23.10;;
62056;SDS011;48016;50.284;18.860;2023-09-12T00:39:33;28.20;;;22.40;;
62056;SDS011;48016;50.284;18.860;2023-09-12T00:41:59;25.50;;;22.80;;
62056;SDS011;48016;50.284;18.860;2023-09-12T00:44:26;26.80;;;22.50;;
62056;SDS011;48016;50.284;18.860;2023-09-12T00:46:53;27.30;;;22.60;;
62056;SDS011;48016;50.284;18.860;2023-09-12T00:49:20;25.60;;;22.60;;
62056;SDS011;48016;50.284;18.860;2023-09-12T00:51:49;27.80;;;23.00;;
62056;SDS011;48016;50.284;18.860;2023-09-12T00:54:17;27.10;;;23.10;;
62056;SDS011;48016;50.284;18.860;2023-09-12T00:56:44;27.80;;;22.90;;
62056;SDS011;48016;50.284;18.860;2023-09-12T00:59:12;24.70;;;20.40;;
62056;SDS011;48016;50.284;18.860;2023-09-12T01:01:40;23.20;;;19.50;;
62056;SDS011;48016;50.284;18.860;2023-09-12T01:04:07;23.10;;;20.60;;
62056;SDS011;48016;50.284;18.860;2023-09-12T01:06:34;25.00;;;22.30;;
62056;SDS011;48016;50.284;18.860;2023-09-12T01:09:01;25.70;;;23.00;;
62056;SDS011;48016;50.284;18.860;2023-09-12T01:11:28;28.20;;;23.80;;
62056;SDS011;48016;50.284;18.860;2023-09-12T01:13:55;28.60;;;25.00;;
62056;SDS011;48016;50.284;18.860;2023-09-12T01:16:21;29.70;;;24.80;;
62056;SDS011;48016;50.284;18.860;2023-09-12T01:18:48;30.00;;;24.70;;
62056;SDS011;48016;50.284;18.860;2023-09-12T01:26:55;35.10;;;26.70;;
62056;SDS011;48016;50.284;18.860;2023-09-12T01:29:32;35.40;;;28.10;;
62056;SDS011;48016;50.284;18.860;2023-09-12T01:32:01;32.30;;;28.80;;
62056;SDS011;48016;50.284;18.860;2023-09-12T01:34:30;34.30;;;27.60;;
62056;SDS011;48016;50.284;18.860;2023-09-12T01:36:56;33.10;;;27.40;;
62056;SDS011;48016;50.284;18.860;2023-09-12T01:39:23;32.50;;;26.00;;
62056;SDS011;48016;50.284;18.860;2023-09-12T01:41:50;28.60;;;25.60;;
62056;SDS011;48016;50.284;18.860;2023-09-12T01:44:19;32.60;;;26.10;;
62056;SDS011;48016;50.284;18.860;2023-09-12T01:46:51;33.30;;;27.50;;
62056;SDS011;48016;50.284;18.860;2023-09-12T01:49:21;33.80;;;27.40;;
62056;SDS011;48016;50.284;18.860;2023-09-12T01:51:50;35.90;;;27.60;;
62056;SDS011;48016;50.284;18.860;2023-09-12T01:54:18;35.30;;;30.30;;
62056;SDS011;48016;50.284;18.860;2023-09-12T01:56:46;37.00;;;29.70;;
62056;SDS011;48016;50.284;18.860;2023-09-12T01:59:14;37.40;;;32.10;;
62056;SDS011;48016;50.284;18.860;2023-09-12T02:01:41;38.50;;;29.20;;
62056;SDS011;48016;50.284;18.860;2023-09-12T02:04:08;36.70;;;30.00;;
62056;SDS011;48016;50.284;18.860;2023-09-12T02:06:35;32.20;;;28.20;;
62056;SDS011;48016;50.284;18.860;2023-09-12T02:09:02;35.40;;;30.10;;
62056;SDS011;48016;50.284;18.860;2023-09-12T02:11:29;32.70;;;28.70;;
62056;SDS011;48016;50.284;18.860;2023-09-12T02:13:55;33.10;;;28.50;;
62056;SDS011;48016;50.284;18.860;2023-09-12T02:16:22;32.30;;;26.70;;
62056;SDS011;48016;50.284;18.860;2023-09-12T02:18:50;35.60;;;28.50;;
62056;SDS011;48016;50.284;18.860;2023-09-12T02:21:16;34.30;;;28.80;;
62056;SDS011;48016;50.284;18.860;2023-09-12T02:23:43;33.60;;;29.80;;
62056;SDS011;48016;50.284;18.860;2023-09-12T02:26:09;34.10;;;28.50;;
62056;SDS011;48016;50.284;18.860;2023-09-12T02:28:36;32.30;;;28.10;;
62056;SDS011;48016;50.284;18.860;2023-09-12T02:31:03;40.30;;;29.10;;
62056;SDS011;48016;50.284;18.860;2023-09-12T02:33:30;31.10;;;27.60;;
62056;SDS011;48016;50.284;18.860;2023-09-12T02:35:57;30.70;;;27.10;;
62056;SDS011;48016;50.284;18.860;2023-09-12T02:38:24;34.90;;;28.20;;
62056;SDS011;48016;50.284;18.860;2023-09-12T02:40:50;29.90;;;26.50;;
62056;SDS011;48016;50.284;18.860;2023-09-12T02:43:17;34.90;;;27.70;;
62056;SDS011;48016;50.284;18.860;2023-09-12T02:45:43;33.50;;;29.30;;
62056;SDS011;48016;50.284;18.860;2023-09-12T02:48:10;36.70;;;29.40;;
62056;SDS011;48016;50.284;18.860;2023-09-12T02:50:37;40.30;;;31.20;;
62056;SDS011;48016;50.284;18.860;2023-09-12T02:53:03;33.40;;;29.80;;
62056;SDS011;48016;50.284;18.860;2023-09-12T02:55:30;33.80;;;29.00;;
62056;SDS011;48016;50.284;18.860;2023-09-12T02:57:57;33.80;;;28.10;;
62056;SDS011;48016;50.284;18.860;2023-09-12T03:00:24;32.20;;;26.30;;
62056;SDS011;48016;50.284;18.860;2023-09-12T03:02:51;34.90;;;27.70;;
62056;SDS011;48016;50.284;18.860;2023-09-12T03:05:17;35.70;;;27.80;;
62056;SDS011;48016;50.284;18.860;2023-09-12T03:07:44;33.60;;;27.50;;
62056;SDS011;48016;50.284;18.860;2023-09-12T03:10:11;32.00;;;27.60;;
62056;SDS011;48016;50.284;18.860;2023-09-12T03:12:37;34.10;;;27.80;;
62056;SDS011;48016;50.284;18.860;2023-09-12T03:15:04;34.50;;;27.90;;
62056;SDS011;48016;50.284;18.860;2023-09-12T03:17:32;33.40;;;27.80;;
62056;SDS011;48016;50.284;18.860;2023-09-12T03:19:59;35.70;;;28.30;;
62056;SDS011;48016;50.284;18.860;2023-09-12T03:24:53;36.50;;;28.10;;
62056;SDS011;48016;50.284;18.860;2023-09-12T03:27:19;37.20;;;28.70;;
62056;SDS011;48016;50.284;18.860;2023-09-12T03:29:47;33.50;;;27.90;;
62056;SDS011;48016;50.284;18.860;2023-09-12T03:32:14;32.50;;;27.50;;
62056;SDS011;48016;50.284;18.860;2023-09-12T03:34:40;34.00;;;29.30;;
62056;SDS011;48016;50.284;18.860;2023-09-12T03:37:07;33.70;;;28.10;;
62056;SDS011;48016;50.284;18.860;2023-09-12T03:39:34;34.90;;;28.20;;
62056;SDS011;48016;50.284;18.860;2023-09-12T03:42:01;32.00;;;27.10;;
62056;SDS011;48016;50.284;18.860;2023-09-12T03:44:27;35.80;;;28.90;;
62056;SDS011;48016;50.284;18.860;2023-09-12T03:46:54;34.40;;;27.70;;
62056;SDS011;48016;50.284;18.860;2023-09-12T03:49:21;35.40;;;29.60;;
62056;SDS011;48016;50.284;18.860;2023-09-12T03:51:48;35.30;;;28.80;;
62056;SDS011;48016;50.284;18.860;2023-09-12T03:54:15;33.60;;;29.90;;
62056;SDS011;48016;50.284;18.860;2023-09-12T03:56:42;37.80;;;29.20;;
62056;SDS011;48016;50.284;18.860;2023-09-12T03:59:08;33.80;;;29.80;;
62056;SDS011;48016;50.284;18.860;2023-09-12T04:01:35;43.10;;;34.00;;
62056;SDS011;48016;50.284;18.860;2023-09-12T04:04:03;36.80;;;32.50;;
62056;SDS011;48016;50.284;18.860;2023-09-12T04:06:30;40.20;;;32.20;;
62056;SDS011;48016;50.284;18.860;2023-09-12T04:08:56;37.30;;;31.10;;
62056;SDS011;48016;50.284;18.860;2023-09-12T04:11:23;34.00;;;30.00;;
62056;SDS011;48016;50.284;18.860;2023-09-12T04:13:50;34.60;;;30.40;;
62056;SDS011;48016;50.284;18.860;2023-09-12T04:16:16;35.40;;;29.20;;
62056;SDS011;48016;50.284;18.860;2023-09-12T04:18:44;34.70;;;30.30;;
62056;SDS011;48016;50.284;18.860;2023-09-12T04:21:10;34.90;;;30.20;;
62056;SDS011;48016;50.284;18.860;2023-09-12T04:23:37;36.60;;;30.30;;
62056;SDS011;48016;50.284;18.860;2023-09-12T04:26:04;38.40;;;31.70;;
62056;SDS011;48016;50.284;18.860;2023-09-12T04:28:31;36.80;;;30.50;;
62056;SDS011;48016;50.284;18.860;2023-09-12T04:31:04;35.70;;;30.40;;
62056;SDS011;48016;50.284;18.860;2023-09-12T04:33:30;35.10;;;28.80;;
62056;SDS011;48016;50.284;18.860;2023-09-12T04:35:58;34.80;;;29.60;;
62056;SDS011;48016;50.284;18.860;2023-09-12T04:38:26;36.20;;;30.10;;
62056;SDS011;48016;50.284;18.860;2023-09-12T04:40:54;33.60;;;28.10;;
62056;SDS011;48016;50.284;18.860;2023-09-12T04:43:29;33.40;;;28.30;;
62056;SDS011;48016;50.284;18.860;2023-09-12T04:45:56;40.40;;;31.10;;
62056;SDS011;48016;50.284;18.860;2023-09-12T04:48:22;38.80;;;31.10;;
62056;SDS011;48016;50.284;18.860;2023-09-12T04:50:49;36.80;;;30.50;;
62056;SDS011;48016;50.284;18.860;2023-09-12T04:53:16;34.70;;;28.50;;
62056;SDS011;48016;50.284;18.860;2023-09-12T04:55:43;32.80;;;28.30;;
62056;SDS011;48016;50.284;18.860;2023-09-12T04:58:09;35.60;;;30.00;;
62056;SDS011;48016;50.284;18.860;2023-09-12T05:00:36;34.50;;;29.20;;
62056;SDS011;48016;50.284;18.860;2023-09-12T05:03:06;32.90;;;28.40;;
62056;SDS011;48016;50.284;18.860;2023-09-12T05:05:34;35.10;;;28.30;;
62056;SDS011;48016;50.284;18.860;2023-09-12T05:08:02;35.00;;;29.60;;
62056;SDS011;48016;50.284;18.860;2023-09-12T05:10:30;34.10;;;29.10;;
62056;SDS011;48016;50.284;18.860;2023-09-12T05:12:57;35.60;;;28.40;;
62056;SDS011;48016;50.284;18.860;2023-09-12T05:15:24;34.70;;;29.70;;
62056;SDS011;48016;50.284;18.860;2023-09-12T05:17:50;32.30;;;28.40;;
62056;SDS011;48016;50.284;18.860;2023-09-12T05:20:17;34.90;;;29.30;;
62056;SDS011;48016;50.284;18.860;2023-09-12T05:22:44;33.30;;;28.20;;
62056;SDS011;48016;50.284;18.860;2023-09-12T05:25:10;34.40;;;27.10;;
62056;SDS011;48016;50.284;18.860;2023-09-12T05:27:37;37.30;;;28.70;;
62056;SDS011;48016;50.284;18.860;2023-09-12T05:30:04;32.40;;;27.10;;
62056;SDS011;48016;50.284;18.860;2023-09-12T05:32:31;31.50;;;27.90;;
62056;SDS011;48016;50.284;18.860;2023-09-12T05:34:58;33.10;;;27.20;;
62056;SDS011;48016;50.284;18.860;2023-09-12T05:37:24;30.80;;;26.20;;
62056;SDS011;48016;50.284;18.860;2023-09-12T05:39:51;31.20;;;25.90;;
62056;SDS011;48016;50.284;18.860;2023-09-12T05:42:18;32.00;;;27.30;;
62056;SDS011;48016;50.284;18.860;2023-09-12T05:44:47;28.90;;;25.80;;
62056;SDS011;48016;50.284;18.860;2023-09-12T05:47:16;29.90;;;24.80;;
62056;SDS011;48016;50.284;18.860;2023-09-12T05:49:42;32.30;;;26.30;;
62056;SDS011;48016;50.284;18.860;2023-09-12T05:52:09;28.40;;;25.30;;
62056;SDS011;48016;50.284;18.860;2023-09-12T05:54:37;28.40;;;23.50;;
62056;SDS011;48016;50.284;18.860;2023-09-12T05:57:04;30.10;;;24.60;;
62056;SDS011;48016;50.284;18.860;2023-09-12T05:59:31;27.50;;;23.60;;
62056;SDS011;48016;50.284;18.860;2023-09-12T06:01:58;29.30;;;24.60;;
62056;SDS011;48016;50.284;18.860;2023-09-12T06:04:24;26.80;;;24.00;;
62056;SDS011;48016;50.284;18.860;2023-09-12T06:06:51;27.60;;;24.60;;
62056;SDS011;48016;50.284;18.860;2023-09-12T06:09:18;32.50;;;23.80;;
62056;SDS011;48016;50.284;18.860;2023-09-12T06:11:44;28.70;;;23.20;;
62056;SDS011;48016;50.284;18.860;2023-09-12T06:14:11;28.30;;;23.50;;
62056;SDS011;48016;50.284;18.860;2023-09-12T06:16:38;28.20;;;22.30;;
62056;SDS011;48016;50.284;18.860;2023-09-12T06:19:04;26.50;;;22.20;;
62056;SDS011;48016;50.284;18.860;2023-09-12T06:21:31;26.10;;;22.10;;
62056;SDS011;48016;50.284;18.860;2023-09-12T06:24:08;28.10;;;22.60;;
62056;SDS011;48016;50.284;18.860;2023-09-12T06:26:39;29.10;;;22.90;;
62056;SDS011;48016;50.284;18.860;2023-09-12T06:31:33;25.80;;;19.10;;
62056;SDS011;48016;50.284;18.860;2023-09-12T06:34:01;23.90;;;18.50;;
62056;SDS011;48016;50.284;18.860;2023-09-12T06:36:29;23.30;;;19.00;;
62056;SDS011;48016;50.284;18.860;2023-09-12T06:38:56;19.70;;;17.60;;
62056;SDS011;48016;50.284;18.860;2023-09-12T06:41:23;20.60;;;18.50;;
62056;SDS011;48016;50.284;18.860;2023-09-12T06:43:51;19.90;;;17.40;;
62056;SDS011;48016;50.284;18.860;2023-09-12T06:46:17;20.40;;;16.10;;
62056;SDS011;48016;50.284;18.860;2023-09-12T06:48:45;19.70;;;16.50;;
62056;SDS011;48016;50.284;18.860;2023-09-12T06:51:12;21.10;;;16.80;;
62056;SDS011;48016;50.284;18.860;2023-09-12T06:58:33;18.50;;;15.70;;
62056;SDS011;48016;50.284;18.860;2023-09-12T07:01:03;16.20;;;14.50;;
62056;SDS011;48016;50.284;18.860;2023-09-12T07:03:32;15.40;;;13.10;;
62056;SDS011;48016;50.284;18.860;2023-09-12T07:05:59;16.40;;;14.00;;
62056;SDS011;48016;50.284;18.860;2023-09-12T07:08:26;17.00;;;13.20;;
62056;SDS011;48016;50.284;18.860;2023-09-12T07:10:57;16.10;;;13.50;;
62056;SDS011;48016;50.284;18.860;2023-09-12T07:13:25;15.00;;;12.70;;
62056;SDS011;48016;50.284;18.860;2023-09-12T07:15:52;18.70;;;12.80;;
62056;SDS011;48016;50.284;18.860;2023-09-12T07:18:19;16.20;;;13.10;;
62056;SDS011;48016;50.284;18.860;2023-09-12T07:20:46;15.90;;;12.80;;
62056;SDS011;48016;50.284;18.860;2023-09-12T07:23:23;15.30;;;12.10;;
62056;SDS011;48016;50.284;18.860;2023-09-12T07:25:50;17.10;;;12.10;;
62056;SDS011;48016;50.284;18.860;2023-09-12T07:28:17;14.70;;;13.10;;
62056;SDS011;48016;50.284;18.860;2023-09-12T07:30:47;15.30;;;13.60;;
62056;SDS011;48016;50.284;18.860;2023-09-12T07:33:14;17.60;;;13.40;;
62056;SDS011;48016;50.284;18.860;2023-09-12T07:35:41;15.10;;;12.50;;
62056;SDS011;48016;50.284;18.860;2023-09-12T07:38:08;15.60;;;13.60;;
62056;SDS011;48016;50.284;18.860;2023-09-12T07:45:29;19.60;;;13.30;;
62056;SDS011;48016;50.284;18.860;2023-09-12T07:47:57;15.40;;;13.50;;
62056;SDS011;48016;50.284;18.860;2023-09-12T07:50:24;17.00;;;13.10;;
62056;SDS011;48016;50.284;18.860;2023-09-12T07:55:17;14.70;;;13.20;;
62056;SDS011;48016;50.284;18.860;2023-09-12T07:57:44;14.50;;;12.90;;
62056;SDS011;48016;50.284;18.860;2023-09-12T08:00:11;15.10;;;12.60;;
62056;SDS011;48016;50.284;18.860;2023-09-12T08:02:39;18.30;;;12.80;;
62056;SDS011;48016;50.284;18.860;2023-09-12T08:05:06;18.50;;;12.10;;
62056;SDS011;48016;50.284;18.860;2023-09-12T08:07:34;13.60;;;11.20;;
62056;SDS011;48016;50.284;18.860;2023-09-12T08:10:02;15.60;;;12.20;;
62056;SDS011;48016;50.284;18.860;2023-09-12T08:12:29;14.00;;;12.70;;
62056;SDS011;48016;50.284;18.860;2023-09-12T08:17:22;13.40;;;11.80;;
62056;SDS011;48016;50.284;18.860;2023-09-12T08:19:49;14.40;;;12.00;;
62056;SDS011;48016;50.284;18.860;2023-09-12T08:22:16;14.60;;;12.80;;
62056;SDS011;48016;50.284;18.860;2023-09-12T08:24:43;16.20;;;11.60;;
62056;SDS011;48016;50.284;18.860;2023-09-12T08:27:10;14.90;;;11.50;;
62056;SDS011;48016;50.284;18.860;2023-09-12T08:29:36;14.20;;;12.50;;
62056;SDS011;48016;50.284;18.860;2023-09-12T08:34:30;18.50;;;12.40;;
62056;SDS011;48016;50.284;18.860;2023-09-12T08:36:57;17.30;;;12.20;;
62056;SDS011;48016;50.284;18.860;2023-09-12T08:41:52;14.10;;;12.10;;
62056;SDS011;48016;50.284;18.860;2023-09-12T08:44:20;15.00;;;11.80;;
62056;SDS011;48016;50.284;18.860;2023-09-12T08:46:47;15.00;;;12.70;;
62056;SDS011;48016;50.284;18.860;2023-09-12T08:49:15;14.70;;;12.70;;
62056;SDS011;48016;50.284;18.860;2023-09-12T08:51:43;15.20;;;13.30;;
62056;SDS011;48016;50.284;18.860;2023-09-12T08:54:11;17.50;;;12.20;;
62056;SDS011;48016;50.284;18.860;2023-09-12T08:56:39;14.60;;;12.80;;
62056;SDS011;48016;50.284;18.860;2023-09-12T08:59:07;15.30;;;11.50;;
62056;SDS011;48016;50.284;18.860;2023-09-12T09:01:36;14.10;;;11.80;;
62056;SDS011;48016;50.284;18.860;2023-09-12T09:04:04;13.40;;;12.00;;
62056;SDS011;48016;50.284;18.860;2023-09-12T09:06:31;13.70;;;12.30;;
62056;SDS011;48016;50.284;18.860;2023-09-12T09:09:06;13.20;;;10.60;;
62056;SDS011;48016;50.284;18.860;2023-09-12T09:11:34;12.10;;;10.40;;
62056;SDS011;48016;50.284;18.860;2023-09-12T09:16:30;12.30;;;10.50;;
62056;SDS011;48016;50.284;18.860;2023-09-12T09:18:58;15.50;;;10.50;;
62056;SDS011;48016;50.284;18.860;2023-09-12T09:21:30;13.30;;;10.30;;
62056;SDS011;48016;50.284;18.860;2023-09-12T09:24:01;11.80;;;10.60;;
62056;SDS011;48016;50.284;18.860;2023-09-12T09:26:46;13.90;;;10.20;;
62056;SDS011;48016;50.284;18.860;2023-09-12T09:29:22;12.60;;;10.60;;
62056;SDS011;48016;50.284;18.860;2023-09-12T09:31:50;11.30;;;10.10;;
62056;SDS011;48016;50.284;18.860;2023-09-12T09:34:18;13.50;;;10.60;;
62056;SDS011;48016;50.284;18.860;2023-09-12T09:36:51;12.80;;;10.80;;
62056;SDS011;48016;50.284;18.860;2023-09-12T09:39:20;12.70;;;10.60;;
62056;SDS011;48016;50.284;18.860;2023-09-12T09:41:49;12.00;;;10.20;;
62056;SDS011;48016;50.284;18.860;2023-09-12T09:44:17;12.00;;;10.60;;
62056;SDS011;48016;50.284;18.860;2023-09-12T09:46:44;12.50;;;11.20;;
62056;SDS011;48016;50.284;18.860;2023-09-12T09:49:15;11.90;;;10.20;;
62056;SDS011;48016;50.284;18.860;2023-09-12T09:51:46;12.10;;;10.90;;
62056;SDS011;48016;50.284;18.860;2023-09-12T09:54:13;12.50;;;11.00;;
62056;SDS011;48016;50.284;18.860;2023-09-12T09:56:50;11.70;;;10.30;;
62056;SDS011;48016;50.284;18.860;2023-09-12T09:59:26;15.30;;;10.80;;
62056;SDS011;48016;50.284;18.860;2023-09-12T10:01:57;12.30;;;10.70;;
62056;SDS011;48016;50.284;18.860;2023-09-12T10:04:26;13.00;;;10.80;;
62056;SDS011;48016;50.284;18.860;2023-09-12T10:06:55;13.70;;;10.90;;
62056;SDS011;48016;50.284;18.860;2023-09-12T10:09:25;12.40;;;11.20;;
62056;SDS011;48016;50.284;18.860;2023-09-12T10:11:54;12.10;;;10.20;;
62056;SDS011;48016;50.284;18.860;2023-09-12T10:14:22;10.90;;;9.80;;
62056;SDS011;48016;50.284;18.860;2023-09-12T10:16:51;14.60;;;10.10;;
62056;SDS011;48016;50.284;18.860;2023-09-12T10:19:28;11.90;;;10.40;;
62056;SDS011;48016;50.284;18.860;2023-09-12T10:24:35;11.50;;;10.40;;
62056;SDS011;48016;50.284;18.860;2023-09-12T10:27:05;10.90;;;9.80;;
62056;SDS011;48016;50.284;18.860;2023-09-12T10:29:32;13.70;;;10.20;;
62056;SDS011;48016;50.284;18.860;2023-09-12T10:32:00;13.90;;;9.60;;
62056;SDS011;48016;50.284;18.860;2023-09-12T10:34:27;13.80;;;10.00;;
62056;SDS011;48016;50.284;18.860;2023-09-12T10:36:58;11.50;;;10.30;;
62056;SDS011;48016;50.284;18.860;2023-09-12T10:39:31;12.10;;;10.30;;
62056;SDS011;48016;50.284;18.860;2023-09-12T10:41:58;10.60;;;9.50;;
62056;SDS011;48016;50.284;18.860;2023-09-12T10:46:52;11.70;;;9.00;;
62056;SDS011;48016;50.284;18.860;2023-09-12T10:49:22;9.40;;;8.40;;
62056;SDS011;48016;50.284;18.860;2023-09-12T10:51:49;10.30;;;9.10;;
62056;SDS011;48016;50.284;18.860;2023-09-12T10:54:24;10.50;;;9.20;;
62056;SDS011;48016;50.284;18.860;2023-09-12T10:57:02;10.70;;;9.30;;
62056;SDS011;48016;50.284;18.860;2023-09-12T10:59:38;10.60;;;9.50;;
62056;SDS011;48016;50.284;18.860;2023-09-12T11:05:02;11.70;;;8.60;;
62056;SDS011;48016;50.284;18.860;2023-09-12T11:10:15;11.80;;;9.00;;
62056;SDS011;48016;50.284;18.860;2023-09-12T11:12:55;12.00;;;9.60;;
62056;SDS011;48016;50.284;18.860;2023-09-12T11:15:24;10.80;;;9.10;;
62056;SDS011;48016;50.284;18.860;2023-09-12T11:18:01;12.80;;;9.00;;
62056;SDS011;48016;50.284;18.860;2023-09-12T11:23:18;10.80;;;8.80;;
62056;SDS011;48016;50.284;18.860;2023-09-12T11:25:45;13.10;;;8.50;;
62056;SDS011;48016;50.284;18.860;2023-09-12T11:30:54;15.40;;;9.10;;
62056;SDS011;48016;50.284;18.860;2023-09-12T11:33:24;11.00;;;9.00;;
62056;SDS011;48016;50.284;18.860;2023-09-12T11:35:52;11.70;;;9.00;;
62056;SDS011;48016;50.284;18.860;2023-09-12T11:38:28;13.20;;;8.90;;
62056;SDS011;48016;50.284;18.860;2023-09-12T11:40:56;16.70;;;9.70;;
62056;SDS011;48016;50.284;18.860;2023-09-12T11:43:24;11.30;;;8.60;;
62056;SDS011;48016;50.284;18.860;2023-09-12T11:45:52;11.80;;;9.30;;
62056;SDS011;48016;50.284;18.860;2023-09-12T11:48:20;11.80;;;9.10;;
62056;SDS011;48016;50.284;18.860;2023-09-12T11:50:51;11.80;;;9.30;;
62056;SDS011;48016;50.284;18.860;2023-09-12T11:53:21;14.60;;;10.80;;
62056;SDS011;48016;50.284;18.860;2023-09-12T11:55:55;12.30;;;9.70;;
62056;SDS011;48016;50.284;18.860;2023-09-12T11:58:25;16.00;;;10.30;;
62056;SDS011;48016;50.284;18.860;2023-09-12T12:00:56;12.70;;;10.00;;
62056;SDS011;48016;50.284;18.860;2023-09-12T12:03:25;11.50;;;10.00;;
62056;SDS011;48016;50.284;18.860;2023-09-12T12:05:56;11.20;;;10.00;;
62056;SDS011;48016;50.284;18.860;2023-09-12T12:08:23;10.70;;;9.40;;
62056;SDS011;48016;50.284;18.860;2023-09-12T12:10:51;11.40;;;9.60;;
62056;SDS011;48016;50.284;18.860;2023-09-12T12:13:19;11.40;;;9.80;;
62056;SDS011;48016;50.284;18.860;2023-09-12T12:15:47;10.90;;;9.30;;
62056;SDS011;48016;50.284;18.860;2023-09-12T12:18:15;11.10;;;9.90;;
62056;SDS011;48016;50.284;18.860;2023-09-12T12:20:42;10.50;;;9.40;;
62056;SDS011;48016;50.284;18.860;2023-09-12T12:23:09;12.70;;;10.00;;
62056;SDS011;48016;50.284;18.860;2023-09-12T12:25:37;14.40;;;9.70;;
62056;SDS011;48016;50.284;18.860;2023-09-12T12:28:03;12.90;;;9.50;;
62056;SDS011;48016;50.284;18.860;2023-09-12T12:30:31;11.00;;;9.70;;
62056;SDS011;48016;50.284;18.860;2023-09-12T12:33:06;10.20;;;9.20;;
62056;SDS011;48016;50.284;18.860;2023-09-12T12:35:34;10.00;;;9.00;;
62056;SDS011;48016;50.284;18.860;2023-09-12T12:38:03;14.30;;;9.00;;
62056;SDS011;48016;50.284;18.860;2023-09-12T12:40:30;11.00;;;9.70;;
62056;SDS011;48016;50.284;18.860;2023-09-12T12:42:56;16.30;;;9.80;;
62056;SDS011;48016;50.284;18.860;2023-09-12T12:48:00;12.30;;;9.40;;
62056;SDS011;48016;50.284;18.860;2023-09-12T12:50:27;12.00;;;9.50;;
62056;SDS011;48016;50.284;18.860;2023-09-12T12:52:54;11.00;;;9.80;;
62056;SDS011;48016;50.284;18.860;2023-09-12T12:55:21;18.40;;;10.00;;
62056;SDS011;48016;50.284;18.860;2023-09-12T12:57:52;12.80;;;9.40;;
62056;SDS011;48016;50.284;18.860;2023-09-12T13:00:18;13.20;;;9.80;;
62056;SDS011;48016;50.284;18.860;2023-09-12T13:07:54;10.70;;;9.50;;
62056;SDS011;48016;50.284;18.860;2023-09-12T13:10:22;10.30;;;8.80;;
62056;SDS011;48016;50.284;18.860;2023-09-12T13:12:49;10.40;;;9.50;;
62056;SDS011;48016;50.284;18.860;2023-09-12T13:15:16;9.90;;;9.00;;
62056;SDS011;48016;50.284;18.860;2023-09-12T13:17:44;10.20;;;8.50;;
62056;SDS011;48016;50.284;18.860;2023-09-12T13:20:11;10.10;;;9.00;;
62056;SDS011;48016;50.284;18.860;2023-09-12T13:22:38;10.90;;;9.10;;
62056;SDS011;48016;50.284;18.860;2023-09-12T13:25:05;11.80;;;9.00;;
62056;SDS011;48016;50.284;18.860;2023-09-12T13:27:34;10.60;;;8.80;;
62056;SDS011;48016;50.284;18.860;2023-09-12T13:32:27;11.20;;;8.70;;
62056;SDS011;48016;50.284;18.860;2023-09-12T13:37:20;10.60;;;9.00;;
62056;SDS011;48016;50.284;18.860;2023-09-12T13:39:47;10.40;;;9.40;;
62056;SDS011;48016;50.284;18.860;2023-09-12T13:42:16;12.60;;;9.10;;
62056;SDS011;48016;50.284;18.860;2023-09-12T13:44:47;11.70;;;9.50;;
62056;SDS011;48016;50.284;18.860;2023-09-12T13:47:15;10.40;;;9.30;;
62056;SDS011;48016;50.284;18.860;2023-09-12T13:49:48;9.70;;;8.70;;
62056;SDS011;48016;50.284;18.860;2023-09-12T13:52:21;9.90;;;8.20;;
62056;SDS011;48016;50.284;18.860;2023-09-12T13:54:48;12.70;;;9.40;;
62056;SDS011;48016;50.284;18.860;2023-09-12T13:57:15;10.90;;;9.70;;
62056;SDS011;48016;50.284;18.860;2023-09-12T13:59:43;11.00;;;9.60;;
62056;SDS011;48016;50.284;18.860;2023-09-12T14:02:10;14.30;;;9.70;;
62056;SDS011;48016;50.284;18.860;2023-09-12T14:07:03;11.50;;;9.30;;
62056;SDS011;48016;50.284;18.860;2023-09-12T14:09:30;12.90;;;9.20;;
62056;SDS011;48016;50.284;18.860;2023-09-12T14:11:56;11.00;;;9.30;;
62056;SDS011;48016;50.284;18.860;2023-09-12T14:14:23;10.80;;;9.20;;
62056;SDS011;48016;50.284;18.860;2023-09-12T14:16:50;14.90;;;9.90;;
62056;SDS011;48016;50.284;18.860;2023-09-12T14:21:43;10.50;;;8.30;;
62056;SDS011;48016;50.284;18.860;2023-09-12T14:24:12;11.30;;;9.50;;
62056;SDS011;48016;50.284;18.860;2023-09-12T14:26:39;9.70;;;8.80;;
62056;SDS011;48016;50.284;18.860;2023-09-12T14:29:06;10.50;;;9.50;;
62056;SDS011;48016;50.284;18.860;2023-09-12T14:31:32;9.90;;;8.80;;
62056;SDS011;48016;50.284;18.860;2023-09-12T14:33:59;10.30;;;9.20;;
62056;SDS011;48016;50.284;18.860;2023-09-12T14:36:26;12.10;;;9.40;;
62056;SDS011;48016;50.284;18.860;2023-09-12T14:38:52;10.40;;;9.00;;
62056;SDS011;48016;50.284;18.860;2023-09-12T14:41:19;13.50;;;12.10;;
62056;SDS011;48016;50.284;18.860;2023-09-12T14:43:45;15.10;;;10.30;;
62056;SDS011;48016;50.284;18.860;2023-09-12T14:46:12;12.70;;;10.10;;
62056;SDS011;48016;50.284;18.860;2023-09-12T14:48:39;10.70;;;9.50;;
62056;SDS011;48016;50.284;18.860;2023-09-12T14:51:06;11.40;;;9.30;;
62056;SDS011;48016;50.284;18.860;2023-09-12T14:55:59;12.30;;;11.00;;
62056;SDS011;48016;50.284;18.860;2023-09-12T14:58:25;11.50;;;9.60;;
62056;SDS011;48016;50.284;18.860;2023-09-12T15:00:52;14.90;;;9.90;;
62056;SDS011;48016;50.284;18.860;2023-09-12T15:03:18;10.30;;;9.20;;
62056;SDS011;48016;50.284;18.860;2023-09-12T15:05:45;12.60;;;11.30;;
62056;SDS011;48016;50.284;18.860;2023-09-12T15:08:12;11.90;;;10.00;;
62056;SDS011;48016;50.284;18.860;2023-09-12T15:10:39;10.20;;;9.20;;
62056;SDS011;48016;50.284;18.860;2023-09-12T15:13:05;12.30;;;9.80;;
62056;SDS011;48016;50.284;18.860;2023-09-12T15:17:59;10.60;;;9.50;;
62056;SDS011;48016;50.284;18.860;2023-09-12T15:20:27;10.20;;;9.10;;
62056;SDS011;48016;50.284;18.860;2023-09-12T15:22:55;11.80;;;10.00;;
62056;SDS011;48016;50.284;18.860;2023-09-12T15:25:21;12.80;;;9.90;;
62056;SDS011;48016;50.284;18.860;2023-09-12T15:30:15;10.70;;;9.70;;
62056;SDS011;48016;50.284;18.860;2023-09-12T15:32:41;11.10;;;10.00;;